^^
Grace C. Lehan Memorial Weather Station Historical Data
Daily Summary for February 8, 2021 Units:  Metric    English   Both
Daily Weekly Monthly Yearly
  High: Low: Average:
Temperature: 22.5 °C 13.3 °C 18 °C
Dew Point: 17.4 °C 12.5 °C 14.8 °C
Humidity: 96.8% 64.3% 82%
Wind Speed: 4.5km/h 0km/h 0.5km/h
Wind Gust: 20.9km/h - -
Wind- - East
Pressure: 1023.2 hPa 1019.5 hPa -
Precipitation: 0 mm    
 
 
Tabular Data for February 8, 2021
Time Temperature Dew Point Pressure Wind Wind Speed Wind Gust Humidity Rainfall Rate (Hourly) solar
00:04 15.1 °C 14.1 °C 1020.5 hPa Calm     94% 0 mm 0 W/m2
00:09 15.1 °C 14.1 °C 1020.5 hPa Calm     94% 0 mm 0 W/m2
00:14 15 °C 14.1 °C 1020.5 hPa Calm     94% 0 mm 0 W/m2
00:19 15 °C 14.1 °C 1020.5 hPa Calm     94% 0 mm 0 W/m2
00:24 14.9 °C 14 °C 1020.5 hPa Calm     94% 0 mm 0 W/m2
00:29 14.9 °C 14 °C 1020.5 hPa Calm     94% 0 mm 0 W/m2
00:34 14.9 °C 14 °C 1020.2 hPa Calm     94% 0 mm 0 W/m2
00:39 14.9 °C 13.9 °C 1020.2 hPa Calm     94% 0 mm 0 W/m2
00:44 14.8 °C 13.9 °C 1020.2 hPa Calm     94% 0 mm 0 W/m2
00:49 14.8 °C 13.8 °C 1020.2 hPa Calm     94% 0 mm 0 W/m2
00:54 14.7 °C 13.8 °C 1020.2 hPa Calm     94% 0 mm 0 W/m2
00:59 14.7 °C 13.7 °C 1020.2 hPa Calm     94% 0 mm 0 W/m2
01:04 14.6 °C 13.7 °C 1020.2 hPa Calm     94% 0 mm 0 W/m2
01:09 14.6 °C 13.6 °C 1020.2 hPa Calm     94% 0 mm 0 W/m2
01:14 14.5 °C 13.6 °C 1020.2 hPa Calm     94% 0 mm 0 W/m2
01:19 14.4 °C 13.5 °C 1020.2 hPa Calm     94% 0 mm 0 W/m2
01:24 14.4 °C 13.5 °C 1020.2 hPa Calm     94% 0 mm 0 W/m2
01:29 14.4 °C 13.5 °C 1019.9 hPa Calm     94% 0 mm 0 W/m2
01:34 14.4 °C 13.5 °C 1019.9 hPa Calm     94% 0 mm 0 W/m2
01:39 14.4 °C 13.5 °C 1019.9 hPa Calm     94% 0 mm 0 W/m2
01:44 14.4 °C 13.5 °C 1019.9 hPa Calm     94% 0 mm 0 W/m2
01:49 14.4 °C 13.6 °C 1019.9 hPa Calm     94.8% 0 mm 0 W/m2
01:54 14.4 °C 13.6 °C 1019.9 hPa Calm     95% 0 mm 0 W/m2
01:59 14.4 °C 13.7 °C 1019.9 hPa Calm     95% 0 mm 0 W/m2
02:04 14.4 °C 13.7 °C 1019.9 hPa Calm     95% 0 mm 0 W/m2
02:09 14.4 °C 13.7 °C 1019.9 hPa Calm     95% 0 mm 0 W/m2
02:14 14.4 °C 13.7 °C 1019.9 hPa Calm     95% 0 mm 0 W/m2
02:19 14.4 °C 13.7 °C 1019.9 hPa Calm     95% 0 mm 0 W/m2
02:24 14.4 °C 13.6 °C 1019.9 hPa Calm     95% 0 mm 0 W/m2
02:29 14.4 °C 13.6 °C 1019.5 hPa Calm     95% 0 mm 0 W/m2
02:34 14.3 °C 13.6 °C 1019.5 hPa Calm     95% 0 mm 0 W/m2
02:39 14.3 °C 13.6 °C 1019.5 hPa Calm     95% 0 mm 0 W/m2
02:44 14.3 °C 13.5 °C 1019.5 hPa Calm     95% 0 mm 0 W/m2
02:49 14.2 °C 13.4 °C 1019.5 hPa Calm     95% 0 mm 0 W/m2
02:54 14.1 °C 13.3 °C 1019.5 hPa Calm     95% 0 mm 0 W/m2
02:59 14 °C 13.2 °C 1019.5 hPa Calm     95% 0 mm 0 W/m2
03:04 13.9 °C 13.1 °C 1019.5 hPa Calm     95% 0 mm 0 W/m2
03:09 13.9 °C 13.1 °C 1019.5 hPa Calm     95% 0 mm 0 W/m2
03:14 13.8 °C 13.1 °C 1019.5 hPa Calm     95% 0 mm 0 W/m2
03:19 13.8 °C 13.1 °C 1019.5 hPa Calm     95% 0 mm 0 W/m2
03:24 13.8 °C 13.1 °C 1019.5 hPa Calm     95% 0 mm 0 W/m2
03:29 13.8 °C 13 °C 1019.5 hPa Calm     95% 0 mm 0 W/m2
03:34 13.8 °C 13 °C 1019.5 hPa Calm     95% 0 mm 0 W/m2
03:39 13.8 °C 13 °C 1019.5 hPa Calm     95% 0 mm 0 W/m2
03:44 13.8 °C 13 °C 1019.5 hPa Calm     95% 0 mm 0 W/m2
03:49 13.8 °C 13.1 °C 1019.5 hPa Calm     95% 0 mm 0 W/m2
03:54 13.9 °C 13.1 °C 1019.5 hPa Calm     95% 0 mm 0 W/m2
03:59 13.9 °C 13.2 °C 1019.5 hPa Calm     95% 0 mm 0 W/m2
04:04 13.9 °C 13.2 °C 1019.5 hPa Calm     95% 0 mm 0 W/m2
04:09 13.9 °C 13.2 °C 1019.5 hPa Calm     95% 0 mm 0 W/m2
04:14 13.9 °C 13.3 °C 1019.5 hPa Calm     95.6% 0 mm 0 W/m2
04:19 13.9 °C 13.3 °C 1019.5 hPa Calm     96% 0 mm 0 W/m2
04:22 13.9 °C 13.3 °C 1019.5 hPa Calm     96% 0 mm 0 W/m2
05:00 13.8 °C 13.1 °C 1019.5 hPa Calm     95% 0 mm 0 W/m2
05:30 13.7 °C 12.9 °C 1019.5 hPa Calm     95% 0 mm 0 W/m2
06:00 13.5 °C 12.7 °C 1019.9 hPa Calm     95% 0 mm 0 W/m2
06:30 13.4 °C 12.8 °C 1019.9 hPa Calm     96% 0 mm 0 W/m2
07:00 13.3 °C 12.7 °C 1019.9 hPa Calm     96% 0 mm 0 W/m2
07:30 13.4 °C 12.8 °C 1020.2 hPa Calm     96% 0 mm 11 W/m2
08:04 13.6 °C 13 °C 1020.9 hPa Calm     96% 0 mm 33 W/m2
08:09 13.6 °C 13 °C 1020.9 hPa Calm     96% 0 mm 49 W/m2
08:14 13.7 °C 13.1 °C 1020.9 hPa Calm     96% 0 mm 39 W/m2
08:19 13.8 °C 13.2 °C 1020.9 hPa Calm     96% 0 mm 33 W/m2
08:24 13.8 °C 13.2 °C 1020.9 hPa Calm     96% 0 mm 33 W/m2
08:29 13.9 °C 13.3 °C 1020.9 hPa Calm     96% 0 mm 35 W/m2
08:34 14 °C 13.4 °C 1020.9 hPa Calm     96% 0 mm 39 W/m2
08:39 14.1 °C 13.5 °C 1020.5 hPa Calm     96% 0 mm 53 W/m2
08:44 14.3 °C 13.6 °C 1020.9 hPa Calm   1.6 km/h 96% 0 mm 56 W/m2
08:49 14.4 °C 13.8 °C 1020.9 hPa Calm   1.6 km/h 96.3% 0 mm 67 W/m2
08:54 14.6 °C 14.1 °C 1020.9 hPa Calm   1.6 km/h 96.8% 0 mm 72 W/m2
08:59 14.7 °C 14.1 °C 1020.9 hPa Calm   1.6 km/h 96.2% 0 mm 88 W/m2
09:04 14.9 °C 14.4 °C 1020.9 hPa NE 0.5 km/h 6.4 km/h 96.8% 0 mm 338 W/m2
09:09 15.2 °C 14.7 °C 1020.9 hPa NE 0.5 km/h 6.4 km/h 96.6% 0 mm 357 W/m2
09:14 15.7 °C 15.1 °C 1020.9 hPa ENE 0.8 km/h 8 km/h 96.5% 0 mm 369 W/m2
09:19 16.2 °C 15.5 °C 1020.9 hPa North 0.8 km/h 8 km/h 96% 0 mm 383 W/m2
09:24 16.8 °C 16.1 °C 1020.9 hPa ENE 0.3 km/h 8 km/h 95.2% 0 mm 401 W/m2
09:29 17.4 °C 16.3 °C 1020.9 hPa NE 0.8 km/h 8 km/h 92.8% 0 mm 418 W/m2
09:34 18 °C 16.2 °C 1020.9 hPa Calm   8 km/h 89.2% 0 mm 436 W/m2
09:39 18.5 °C 16.5 °C 1020.9 hPa ENE 0.2 km/h 1.6 km/h 88% 0 mm 457 W/m2
09:44 19 °C 16.4 °C 1020.9 hPa Calm   1.6 km/h 85.1% 0 mm 476 W/m2
09:49 19.4 °C 16.7 °C 1020.9 hPa Calm   1.6 km/h 83.9% 0 mm 494 W/m2
09:54 19.9 °C 16.8 °C 1020.9 hPa NE 0.2 km/h 3.2 km/h 82.1% 0 mm 561 W/m2
09:59 20.3 °C 16.7 °C 1020.9 hPa East 1.3 km/h 8 km/h 79.9% 0 mm 638 W/m2
10:04 20.5 °C 16.8 °C 1020.9 hPa ENE 1.1 km/h 8 km/h 79.5% 0 mm 309 W/m2
10:09 20.6 °C 16.5 °C 1020.9 hPa ENE 0.5 km/h 6.4 km/h 77.7% 0 mm 272 W/m2
10:14 20.3 °C 16.2 °C 1020.9 hPa ENE 0.2 km/h 6.4 km/h 77.2% 0 mm 272 W/m2
10:19 20.1 °C 16.5 °C 1020.9 hPa ENE 0.2 km/h 6.4 km/h 79.9% 0 mm 258 W/m2
10:24 20 °C 16.3 °C 1020.9 hPa ENE 0.8 km/h 6.4 km/h 79.5% 0 mm 306 W/m2
10:29 20 °C 16.4 °C 1020.9 hPa NE 1 km/h 9.7 km/h 79.7% 0 mm 353 W/m2
10:34 20.1 °C 16.3 °C 1020.9 hPa ENE 2.7 km/h 9.7 km/h 79.1% 0 mm 343 W/m2
10:39 20.3 °C 16.8 °C 1020.9 hPa Calm   9.7 km/h 80.4% 0 mm 374 W/m2
10:44 20.6 °C 16.8 °C 1020.9 hPa ENE 0.5 km/h 9.7 km/h 79% 0 mm 392 W/m2
10:49 20.6 °C 16.5 °C 1020.9 hPa ENE 0.8 km/h 9.7 km/h 77.6% 0 mm 378 W/m2
10:54 20.6 °C 16.7 °C 1020.9 hPa Calm   9.7 km/h 78.8% 0 mm 338 W/m2
10:59 20.5 °C 16.6 °C 1020.9 hPa ENE 1.3 km/h 9.7 km/h 78.2% 0 mm 325 W/m2
11:04 20.4 °C 16.6 °C 1020.9 hPa ENE 1 km/h 9.7 km/h 78.4% 0 mm 308 W/m2
11:09 20.4 °C 16.7 °C 1020.9 hPa ENE 0.2 km/h 6.4 km/h 78.8% 0 mm 338 W/m2
11:14 20.4 °C 16.5 °C 1020.9 hPa ENE 0.3 km/h 6.4 km/h 78.3% 0 mm 322 W/m2
11:15 20.3 °C 16.4 °C 1020.9 hPa Calm   6.4 km/h 78% 0 mm 283 W/m2
11:30 20.5 °C 16.7 °C 1020.5 hPa Calm   9.7 km/h 79% 0 mm 283 W/m2
12:09 20.8 °C 16.4 °C 1020.5 hPa NE 1.6 km/h 9.7 km/h 75.7% 0 mm 297 W/m2
12:14 20.9 °C 16.4 °C 1020.5 hPa ENE 0.3 km/h 6.4 km/h 76% 0 mm 306 W/m2
12:19 20.9 °C 16.4 °C 1020.5 hPa ENE 1 km/h 8 km/h 75.7% 0 mm 292 W/m2
12:24 20.9 °C 16.8 °C 1020.5 hPa NE 0.3 km/h 8 km/h 76.9% 0 mm 283 W/m2
12:29 21.1 °C 16.9 °C 1020.5 hPa East 0.2 km/h 8 km/h 76.8% 0 mm 302 W/m2
12:34 21.2 °C 16.8 °C 1020.5 hPa NW 1.9 km/h 17.7 km/h 76% 0 mm 283 W/m2
12:39 21.3 °C 16.9 °C 1020.5 hPa NW 0.6 km/h 17.7 km/h 76.2% 0 mm 255 W/m2
12:44 21.4 °C 17.1 °C 1020.5 hPa NW 0.5 km/h 17.7 km/h 76.2% 0 mm 260 W/m2
12:49 21.6 °C 17.2 °C 1020.5 hPa Calm   17.7 km/h 76.1% 0 mm 283 W/m2
12:54 21.7 °C 17.3 °C 1020.5 hPa NNW 1 km/h 17.7 km/h 76.4% 0 mm 283 W/m2
12:59 21.8 °C 17.3 °C 1020.5 hPa NNW 1.4 km/h 17.7 km/h 75.8% 0 mm 279 W/m2
13:04 21.8 °C 17.4 °C 1020.5 hPa Calm   17.7 km/h 75.9% 0 mm 281 W/m2
13:09 21.9 °C 17.3 °C 1020.5 hPa NNE 0.6 km/h 4.8 km/h 75.2% 0 mm 323 W/m2
13:14 21.9 °C 17.1 °C 1020.5 hPa East 1.9 km/h 6.4 km/h 73.9% 0 mm 381 W/m2
13:19 21.9 °C 17.1 °C 1020.2 hPa East 0.2 km/h 6.4 km/h 74.4% 0 mm 288 W/m2
13:24 21.9 °C 17.4 °C 1020.2 hPa ENE 0.8 km/h 8 km/h 75.1% 0 mm 257 W/m2
13:29 22 °C 16.9 °C 1020.2 hPa ENE 1.3 km/h 8 km/h 73.1% 0 mm 174 W/m2
13:34 21.9 °C 16.8 °C 1020.2 hPa NE 1 km/h 8 km/h 72.7% 0 mm 146 W/m2
13:39 21.9 °C 17.1 °C 1020.2 hPa NNE 1 km/h 8 km/h 74% 0 mm 146 W/m2
13:44 21.9 °C 16.6 °C 1020.2 hPa ENE 3.2 km/h 11.3 km/h 71.7% 0 mm 74 W/m2
13:49 21.9 °C 16.6 °C 1019.9 hPa East 2.1 km/h 11.3 km/h 71.3% 0 mm 209 W/m2
13:54 22 °C 16.1 °C 1019.9 hPa NE 3.5 km/h 14.5 km/h 69.1% 0 mm 216 W/m2
13:59 22.1 °C 16.3 °C 1019.9 hPa NE 1.6 km/h 14.5 km/h 69.5% 0 mm 260 W/m2
14:04 22.2 °C 16.4 °C 1019.9 hPa NNE 0.8 km/h 14.5 km/h 69.6% 0 mm 264 W/m2
14:09 22.3 °C 16.6 °C 1019.9 hPa NE 0.6 km/h 6.4 km/h 69.9% 0 mm 229 W/m2
14:14 22.4 °C 16.3 °C 1019.9 hPa ESE 1.1 km/h 8 km/h 68.4% 0 mm 221 W/m2
14:19 22.4 °C 16.2 °C 1019.9 hPa Calm   8 km/h 67.9% 0 mm 204 W/m2
14:24 22.4 °C 16.1 °C 1019.9 hPa Calm   8 km/h 67.7% 0 mm 132 W/m2
14:29 22.3 °C 16 °C 1019.9 hPa Calm   8 km/h 67.5% 0 mm 125 W/m2
14:34 22.3 °C 16 °C 1019.5 hPa Calm   8 km/h 67.6% 0 mm 132 W/m2
14:39 22.3 °C 15.9 °C 1019.5 hPa East 0.2 km/h 3.2 km/h 67.2% 0 mm 104 W/m2
14:44 22.3 °C 15.9 °C 1019.5 hPa Calm   3.2 km/h 67% 0 mm 120 W/m2
14:49 22.3 °C 16.1 °C 1019.5 hPa ENE 1.6 km/h 6.4 km/h 67.7% 0 mm 105 W/m2
14:54 22.3 °C 15.7 °C 1019.5 hPa ENE 1.8 km/h 9.7 km/h 65.9% 0 mm 102 W/m2
14:59 22.3 °C 15.6 °C 1019.5 hPa NE 1.8 km/h 11.3 km/h 65.5% 0 mm 77 W/m2
15:04 22.3 °C 15.7 °C 1019.5 hPa NE 0.2 km/h 11.3 km/h 66.3% 0 mm 81 W/m2
15:09 22.3 °C 15.9 °C 1019.5 hPa NE 0.8 km/h 8 km/h 67% 0 mm 93 W/m2
15:14 22.3 °C 15.9 °C 1019.5 hPa ENE 0.6 km/h 8 km/h 67.2% 0 mm 116 W/m2
15:19 22.3 °C 15.9 °C 1019.5 hPa ENE 1.1 km/h 8 km/h 66.9% 0 mm 125 W/m2
15:24 22.4 °C 15.8 °C 1019.5 hPa ENE 3.4 km/h 9.7 km/h 66.2% 0 mm 169 W/m2
15:29 22.5 °C 15.6 °C 1019.5 hPa East 0.2 km/h 9.7 km/h 65% 0 mm 200 W/m2
15:34 22.5 °C 15.4 °C 1019.5 hPa East 2.4 km/h 9.7 km/h 64.4% 0 mm 229 W/m2
15:39 22.5 °C 15.4 °C 1019.5 hPa ENE 3.2 km/h 9.7 km/h 64.3% 0 mm 91 W/m2
15:44 22.4 °C 15.4 °C 1019.9 hPa ENE 1 km/h 9.7 km/h 64.7% 0 mm 83 W/m2
15:49 22.3 °C 15.6 °C 1019.9 hPa ENE 0.6 km/h 9.7 km/h 65.4% 0 mm 56 W/m2
15:54 22.2 °C 15.4 °C 1019.9 hPa East 0.2 km/h 9.7 km/h 65.5% 0 mm 51 W/m2
15:59 22.1 °C 15.5 °C 1019.9 hPa East 0.6 km/h 9.7 km/h 66% 0 mm 49 W/m2
16:00 22.1 °C 15.4 °C 1019.9 hPa Calm   9.7 km/h 66% 0 mm 47 W/m2
16:09 22 °C 15.4 °C 1019.5 hPa Calm     66.2% 0 mm 40 W/m2
16:14 22 °C 15.6 °C 1019.5 hPa Calm   1.6 km/h 66.8% 0 mm 40 W/m2
16:19 21.9 °C 15.3 °C 1019.9 hPa ENE 0.2 km/h 1.6 km/h 66.2% 0 mm 40 W/m2
16:24 21.9 °C 15.4 °C 1019.9 hPa Calm   1.6 km/h 66.3% 0 mm 40 W/m2
16:29 21.9 °C 15.3 °C 1019.9 hPa Calm   1.6 km/h 66.1% 0 mm 37 W/m2
16:34 21.8 °C 15.3 °C 1019.9 hPa Calm   1.6 km/h 66.5% 0 mm 44 W/m2
16:39 21.8 °C 15.4 °C 1019.9 hPa Calm     67% 0 mm 44 W/m2
16:44 21.7 °C 15.6 °C 1019.9 hPa Calm     68% 0 mm 46 W/m2
16:49 21.7 °C 15.5 °C 1019.9 hPa Calm     68% 0 mm 49 W/m2
16:54 21.7 °C 15.5 °C 1019.9 hPa Calm     68% 0 mm 51 W/m2
16:59 21.6 °C 15.7 °C 1019.9 hPa Calm     68.9% 0 mm 47 W/m2
17:04 21.6 °C 15.7 °C 1019.9 hPa Calm     69% 0 mm 47 W/m2
17:09 21.6 °C 15.7 °C 1019.9 hPa Calm     69.1% 0 mm 42 W/m2
17:14 21.6 °C 15.8 °C 1019.9 hPa Calm     69.8% 0 mm 40 W/m2
17:19 21.5 °C 15.7 °C 1019.9 hPa Calm     69.6% 0 mm 33 W/m2
17:24 21.4 °C 15.7 °C 1019.9 hPa Calm     70% 0 mm 30 W/m2
17:29 21.3 °C 15.8 °C 1019.9 hPa Calm     70.7% 0 mm 25 W/m2
17:34 21.3 °C 15.6 °C 1020.2 hPa Calm     70.2% 0 mm 21 W/m2
17:39 21.2 °C 15.7 °C 1020.2 hPa Calm     71% 0 mm 19 W/m2
17:44 21.1 °C 15.6 °C 1020.2 hPa Calm     70.6% 0 mm 18 W/m2
17:49 21.1 °C 15.6 °C 1020.2 hPa Calm     71.1% 0 mm 14 W/m2
17:54 20.9 °C 15.7 °C 1020.2 hPa Calm     72% 0 mm 12 W/m2
17:59 20.8 °C 15.6 °C 1020.2 hPa Calm     72% 0 mm 11 W/m2
18:04 20.7 °C 15.7 °C 1020.2 hPa Calm     73.1% 0 mm 9 W/m2
18:09 20.6 °C 15.9 °C 1020.2 hPa Calm     74.7% 0 mm 7 W/m2
18:14 20.5 °C 16.1 °C 1020.2 hPa Calm     76% 0 mm 5 W/m2
18:19 20.4 °C 16.3 °C 1020.5 hPa Calm     77.3% 0 mm 0 W/m2
18:24 20.2 °C 16.3 °C 1020.5 hPa Calm     78.2% 0 mm 0 W/m2
18:29 20.1 °C 16.3 °C 1020.5 hPa Calm     78.9% 0 mm 0 W/m2
18:34 19.9 °C 16.2 °C 1020.5 hPa Calm     79% 0 mm 0 W/m2
18:39 19.7 °C 16 °C 1020.5 hPa Calm     79% 0 mm 0 W/m2
18:44 19.6 °C 15.9 °C 1020.5 hPa Calm     79.6% 0 mm 0 W/m2
18:49 19.4 °C 16 °C 1020.5 hPa Calm     80.5% 0 mm 0 W/m2
18:54 19.3 °C 16 °C 1020.5 hPa Calm     81% 0 mm 0 W/m2
18:59 19.2 °C 15.9 °C 1020.9 hPa Calm     81.4% 0 mm 0 W/m2
19:04 19.1 °C 15.9 °C 1020.5 hPa Calm     82% 0 mm 0 W/m2
19:09 19 °C 15.8 °C 1020.9 hPa Calm     82% 0 mm 0 W/m2
19:14 18.9 °C 15.9 °C 1020.9 hPa Calm     82.7% 0 mm 0 W/m2
19:19 18.8 °C 15.8 °C 1020.9 hPa Calm     83% 0 mm 0 W/m2
19:24 18.7 °C 15.9 °C 1020.9 hPa Calm     83.6% 0 mm 0 W/m2
19:29 18.6 °C 15.9 °C 1020.9 hPa Calm     84% 0 mm 0 W/m2
19:34 18.6 °C 15.8 °C 1020.9 hPa Calm     84% 0 mm 0 W/m2
19:39 18.5 °C 15.8 °C 1021.2 hPa Calm     84.4% 0 mm 0 W/m2
19:44 18.4 °C 15.7 °C 1021.2 hPa Calm     84.3% 0 mm 0 W/m2
19:49 18.3 °C 15.8 °C 1021.2 hPa Calm     85% 0 mm 0 W/m2
19:54 18.3 °C 15.7 °C 1021.2 hPa Calm     85% 0 mm 0 W/m2
19:59 18.2 °C 15.7 °C 1021.2 hPa Calm     85% 0 mm 0 W/m2
20:00 18.2 °C 15.6 °C 1021.2 hPa Calm     85% 0 mm 0 W/m2
20:09 18.1 °C 15.1 °C 1021.6 hPa ENE 4 km/h 17.7 km/h 82.8% 0 mm 0 W/m2
20:14 18.2 °C 14.8 °C 1021.6 hPa ENE 1.8 km/h 17.7 km/h 80.8% 0 mm 0 W/m2
20:19 18.3 °C 14.7 °C 1021.6 hPa East 0.2 km/h 17.7 km/h 79.8% 0 mm 0 W/m2
20:24 18.3 °C 14.6 °C 1021.6 hPa Calm   17.7 km/h 79% 0 mm 0 W/m2
20:29 18.3 °C 14.6 °C 1021.6 hPa East 0.2 km/h 17.7 km/h 79% 0 mm 0 W/m2
20:34 18.3 °C 14.6 °C 1021.6 hPa Calm   17.7 km/h 79% 0 mm 0 W/m2
20:39 18.2 °C 14.4 °C 1021.9 hPa East 0.2 km/h 4.8 km/h 78.7% 0 mm 0 W/m2
20:44 18.1 °C 14.2 °C 1021.9 hPa Calm   4.8 km/h 78% 0 mm 0 W/m2
20:49 18.1 °C 14.2 °C 1021.9 hPa Calm   4.8 km/h 78% 0 mm 0 W/m2
20:54 17.9 °C 14.1 °C 1021.9 hPa Calm   4.8 km/h 78.4% 0 mm 0 W/m2
20:59 17.8 °C 13.9 °C 1021.9 hPa Calm   4.8 km/h 78% 0 mm 0 W/m2
21:04 17.7 °C 13.9 °C 1021.9 hPa Calm   4.8 km/h 78.5% 0 mm 0 W/m2
21:09 17.6 °C 13.9 °C 1022.2 hPa Calm     79% 0 mm 0 W/m2
21:14 17.4 °C 13.8 °C 1022.2 hPa Calm     79% 0 mm 0 W/m2
21:19 17.3 °C 13.8 °C 1022.2 hPa Calm     79.6% 0 mm 0 W/m2
21:24 17.2 °C 13.7 °C 1022.2 hPa Calm     80% 0 mm 0 W/m2
21:29 17.1 °C 13.6 °C 1022.2 hPa Calm     80% 0 mm 0 W/m2
21:34 16.9 °C 13.4 °C 1022.2 hPa ENE 1.6 km/h 11.3 km/h 80% 0 mm 0 W/m2
21:39 16.8 °C 13.2 °C 1022.6 hPa East 2.9 km/h 14.5 km/h 79% 0 mm 0 W/m2
21:44 16.8 °C 12.9 °C 1022.6 hPa East 2.3 km/h 14.5 km/h 78% 0 mm 0 W/m2
21:49 16.8 °C 12.9 °C 1022.6 hPa East 2.3 km/h 14.5 km/h 78% 0 mm 0 W/m2
21:54 16.8 °C 12.9 °C 1022.6 hPa East 3.1 km/h 16.1 km/h 78% 0 mm 0 W/m2
21:59 16.8 °C 12.9 °C 1022.6 hPa ENE 1.9 km/h 16.1 km/h 78% 0 mm 0 W/m2
22:04 16.7 °C 12.9 °C 1022.6 hPa ENE 4.5 km/h 20.9 km/h 78.2% 0 mm 0 W/m2
22:09 16.6 °C 13 °C 1022.9 hPa East 3.4 km/h 20.9 km/h 79% 0 mm 0 W/m2
22:14 16.5 °C 13.1 °C 1022.9 hPa East 1.8 km/h 20.9 km/h 79.9% 0 mm 0 W/m2
22:19 16.4 °C 13.1 °C 1022.9 hPa ENE 1.8 km/h 20.9 km/h 80.6% 0 mm 0 W/m2
22:24 16.3 °C 13 °C 1022.9 hPa ENE 1.9 km/h 20.9 km/h 81% 0 mm 0 W/m2
22:29 16.1 °C 13.1 °C 1022.9 hPa ENE 3.7 km/h 20.9 km/h 82% 0 mm 0 W/m2
22:34 16 °C 13.1 °C 1022.9 hPa East 1.4 km/h 20.9 km/h 83% 0 mm 0 W/m2
22:39 15.8 °C 13.1 °C 1022.9 hPa NE 1.6 km/h 14.5 km/h 83.9% 0 mm 0 W/m2
22:44 15.7 °C 13.1 °C 1022.9 hPa ENE 2.3 km/h 14.5 km/h 84% 0 mm 0 W/m2
22:49 15.7 °C 13.1 °C 1022.9 hPa ENE 1.1 km/h 14.5 km/h 85% 0 mm 0 W/m2
22:54 15.6 °C 13.1 °C 1022.9 hPa NE 2.7 km/h 14.5 km/h 85% 0 mm 0 W/m2
22:59 15.4 °C 12.9 °C 1022.9 hPa NE 0.5 km/h 14.5 km/h 85% 0 mm 0 W/m2
23:04 15.4 °C 13.1 °C 1022.9 hPa Calm   14.5 km/h 85.7% 0 mm 0 W/m2
23:09 15.3 °C 13 °C 1022.9 hPa Calm     86% 0 mm 0 W/m2
23:14 15.3 °C 12.9 °C 1022.9 hPa Calm     86% 0 mm 0 W/m2
23:19 15.2 °C 12.9 °C 1022.9 hPa Calm     86% 0 mm 0 W/m2
23:24 15.2 °C 12.8 °C 1023.2 hPa Calm     86% 0 mm 0 W/m2
23:29 15.1 °C 12.8 °C 1023.2 hPa Calm     86% 0 mm 0 W/m2
23:34 15 °C 12.7 °C 1023.2 hPa Calm     86% 0 mm 0 W/m2
23:39 14.9 °C 12.6 °C 1022.9 hPa Calm     86% 0 mm 0 W/m2
23:44 14.8 °C 12.6 °C 1023.2 hPa Calm     86.4% 0 mm 0 W/m2
23:49 14.8 °C 12.6 °C 1023.2 hPa Calm     87% 0 mm 0 W/m2
23:54 14.7 °C 12.6 °C 1023.2 hPa Calm     87% 0 mm 0 W/m2
23:59 14.6 °C 12.5 °C 1023.2 hPa Calm     87.3% 0 mm 0 W/m2
Hartford County Weather
Compliments of Weather Underground - 4 mb